Terminal Aerodrome Forecast
Issued by NWS

Home | Current Version | Previous Version | Text Only | Print | Product List | Glossary On
Versions: 1 2 3 4 5 6 7 8 9 10 11 12 13 14
000
FTUS46 KSTO 281700
TAFSCK
TAF
KSCK 281731Z 2818/2918 VRB02KT 5SM BR FEW250
     FM282100 31005KT P6SM FEW250
     FM290300 VRB04KT 4SM BR SKC
     FM291200 VRB02KT 2SM BR FEW003=

USA.gov is the U.S. government's official web portal to all federal, state and local government web resources and services.